Time;durP1;ratioP1;P1;durP2;ratioP2;P2;SDS_P1;SDS_P2;PMS_P1;PMS_P2;Temp;Humidity;BMP_temperature;BMP_pressure;BME280_temperature;BME280_humidity;BME280_pressure;Samples;Min_cycle;Max_cycle;Signal;HPM_P1;HPM_P2
2023/11/18 00:00:54;;;;;;;;;14.67;14.00;;;;;18.34;89.08;101667.41;6248206;22;47011;-83
2023/11/18 00:03:19;;;;;;;;;16.00;14.67;;;;;18.41;88.56;101655.72;6221650;22;46733;-84
2023/11/18 00:05:45;;;;;;;;;16.67;13.67;;;;;18.36;89.61;101654.84;6249060;22;45340;-84
2023/11/18 00:08:10;;;;;;;;;13.67;13.67;;;;;18.39;89.81;101662.91;6249030;22;45370;-84
2023/11/18 00:10:36;;;;;;;;;17.00;15.67;;;;;18.38;89.82;101664.72;6220042;22;48108;-84
2023/11/18 00:13:03;;;;;;;;;16.00;14.67;;;;;18.41;90.30;101668.31;6219534;22;45356;-84
2023/11/18 00:15:29;;;;;;;;;18.00;16.00;;;;;18.38;90.69;101663.84;6247342;22;45296;-84
2023/11/18 00:17:57;;;;;;;;;14.00;14.00;;;;;18.45;89.92;101667.41;6245138;22;45765;-84
2023/11/18 00:20:24;;;;;;;;;13.33;12.00;;;;;18.48;90.65;101668.28;6217986;22;47270;-84
2023/11/18 00:22:51;;;;;;;;;10.00;10.00;;;;;18.42;91.19;101673.69;6245322;22;45547;-84
2023/11/18 00:25:16;;;;;;;;;10.67;9.00;;;;;18.49;91.62;101678.13;6247251;22;45395;-84
2023/11/18 00:27:43;;;;;;;;;9.33;9.00;;;;;18.58;92.83;101674.50;6221541;22;45483;-84
2023/11/18 00:30:10;;;;;;;;;3.00;3.00;;;;;18.79;92.67;101676.25;6220544;22;47363;-84
2023/11/18 00:32:36;;;;;;;;;10.33;9.33;;;;;18.87;92.75;101679.81;6220583;22;45409;-84
2023/11/18 00:35:04;;;;;;;;;9.33;9.33;;;;;18.87;93.06;101671.72;6248279;22;45394;-84
2023/11/18 00:37:31;;;;;;;;;11.00;9.00;;;;;18.94;93.28;101669.88;6218982;22;45547;-84
2023/11/18 00:39:56;;;;;;;;;13.33;11.00;;;;;18.95;93.18;101664.50;6246024;22;46950;-84
2023/11/18 00:42:22;;;;;;;;;8.00;8.00;;;;;18.97;92.67;101659.09;6220406;22;45404;-85
2023/11/18 00:44:47;;;;;;;;;10.00;8.33;;;;;18.96;92.56;101651.91;6248133;22;45355;-84
2023/11/18 00:47:13;;;;;;;;;6.00;6.00;;;;;18.95;91.99;101653.69;6221500;22;45512;-84
2023/11/18 00:49:39;;;;;;;;;9.00;8.00;;;;;18.91;91.38;101651.03;6245788;22;47068;-84
2023/11/18 00:52:05;;;;;;;;;8.33;7.00;;;;;18.96;91.74;101659.97;6220668;22;45432;-84
2023/11/18 00:54:31;;;;;;;;;6.00;5.33;;;;;19.01;90.34;101657.25;6247568;22;45396;-84
2023/11/18 00:56:56;;;;;;;;;4.00;4.00;;;;;18.38;93.07;101648.56;6244898;22;45340;-84
2023/11/18 00:59:22;;;;;;;;;4.00;4.00;;;;;18.31;94.13;101640.50;6248440;22;45397;-85
2023/11/18 01:01:48;;;;;;;;;3.67;3.33;;;;;18.23;93.88;101635.13;6221639;22;45310;-85
2023/11/18 01:04:14;;;;;;;;;3.00;3.00;;;;;18.17;93.70;101633.34;6220785;22;45376;-85
2023/11/18 01:06:39;;;;;;;;;2.33;2.33;;;;;18.64;91.13;101633.19;6249002;22;45269;-84
2023/11/18 01:09:07;;;;;;;;;2.00;2.00;;;;;18.96;91.62;101625.81;6219782;22;48556;-84
2023/11/18 01:11:35;;;;;;;;;3.00;2.00;;;;;18.97;91.83;101607.88;6248798;22;45442;-83
2023/11/18 01:14:01;;;;;;;;;3.25;2.50;;;;;18.71;92.07;101619.66;6222036;22;45380;-83
2023/11/18 01:16:28;;;;;;;;;3.00;3.00;;;;;18.77;90.83;101614.25;6250000;22;45396;-85
2023/11/18 01:19:00;;;;;;;;;3.00;3.00;;;;;18.92;89.77;101618.66;6222524;22;48551;-84
2023/11/18 01:21:28;;;;;;;;;3.33;3.33;;;;;18.24;93.07;101609.09;6248134;22;45404;-84
2023/11/18 01:23:54;;;;;;;;;4.67;4.00;;;;;18.21;92.52;101612.72;6221269;22;45356;-83
2023/11/18 01:26:27;;;;;;;;;2.00;2.00;;;;;18.71;90.00;101599.91;6246535;22;45304;-83
2023/11/18 01:28:59;;;;;;;;;3.33;3.33;;;;;18.14;91.28;101603.78;6220418;22;47285;-84
2023/11/18 01:31:24;;;;;;;;;5.00;5.00;;;;;18.08;91.69;101598.41;6220110;22;45359;-84
2023/11/18 01:33:50;;;;;;;;;4.00;4.00;;;;;18.14;91.91;101598.38;6246412;22;45258;-84
2023/11/18 01:36:15;;;;;;;;;4.67;3.00;;;;;18.12;94.08;101608.25;6245485;22;45332;-83
2023/11/18 01:38:41;;;;;;;;;2.00;2.00;;;;;18.07;91.63;101596.59;6248315;22;45408;-83
2023/11/18 01:41:07;;;;;;;;;2.67;2.67;;;;;18.29;92.86;101591.16;6246457;22;45103;-84
2023/11/18 01:43:33;;;;;;;;;5.00;3.00;;;;;18.22;93.29;101609.13;6221017;22;45381;-84
2023/11/18 01:46:01;;;;;;;;;6.67;6.67;;;;;18.34;94.17;101586.63;6246886;22;45431;-84
2023/11/18 01:48:29;;;;;;;;;3.67;3.00;;;;;18.42;93.85;101581.19;6222785;22;47892;-84
2023/11/18 01:50:57;;;;;;;;;3.00;3.00;;;;;18.55;90.92;101570.34;6223955;22;45410;-84
2023/11/18 01:53:23;;;;;;;;;5.00;3.00;;;;;18.22;91.19;101563.38;6252230;22;45343;-84
2023/11/18 01:55:50;;;;;;;;;5.00;3.67;;;;;18.54;92.11;101568.59;6222074;22;45316;-83
2023/11/18 01:58:19;;;;;;;;;3.33;3.00;;;;;18.21;91.30;101563.34;6223244;22;47325;-84
2023/11/18 02:00:46;;;;;;;;;2.33;2.33;;;;;18.38;90.70;101569.56;6247722;22;45485;-83
2023/11/18 02:03:12;;;;;;;;;7.33;5.00;;;;;18.17;89.21;101560.66;6220662;22;45318;-84
2023/11/18 02:05:38;;;;;;;;;4.33;3.33;;;;;18.11;91.54;101568.75;6221739;22;45384;-84
2023/11/18 02:11:41;;;;;;;;;2.33;2.33;;;;;18.68;89.84;101570.28;6248528;22;45446;-83
2023/11/18 02:14:10;;;;;;;;;4.67;3.00;;;;;18.36;89.68;101568.66;6246901;22;45395;-84
2023/11/18 02:16:39;;;;;;;;;3.33;3.00;;;;;18.37;93.26;101575.84;6249073;22;45240;-84
2023/11/18 02:19:15;;;;;;;;;4.00;4.00;;;;;18.51;90.62;101568.59;6248174;22;47028;-83
2023/11/18 02:21:42;;;;;;;;;4.25;4.25;;;;;18.12;92.36;101570.56;6249247;22;45431;-83
2023/11/18 02:24:09;;;;;;;;;2.00;2.00;;;;;18.44;91.29;101561.47;6249687;22;45351;-83
2023/11/18 02:26:35;;;;;;;;;3.00;3.00;;;;;18.12;93.41;101558.91;6249408;22;45765;-83
2023/11/18 02:29:04;;;;;;;;;2.67;2.67;;;;;18.66;92.61;101581.06;6218023;22;47344;-84
2023/11/18 02:31:34;;;;;;;;;3.00;3.00;;;;;18.62;93.52;101589.19;6243628;22;46002;-84
2023/11/18 02:34:06;;;;;;;;;6.67;4.67;;;;;18.57;93.68;101595.50;6217746;22;45342;-84
2023/11/18 02:36:39;;;;;;;;;3.67;2.33;;;;;18.63;92.61;101594.56;6218775;22;45324;-84
2023/11/18 02:39:10;;;;;;;;;2.00;2.00;;;;;18.36;94.42;101611.75;6247799;22;45269;-84
2023/11/18 02:41:39;;;;;;;;;3.00;3.00;;;;;18.67;91.06;101606.22;6221059;22;45322;-84
2023/11/18 02:44:10;;;;;;;;;4.33;2.67;;;;;18.56;91.77;101596.41;6244069;22;46441;-84
2023/11/18 02:46:39;;;;;;;;;4.00;2.00;;;;;18.62;89.20;101608.94;6219457;22;45444;-84
2023/11/18 02:49:05;;;;;;;;;2.33;2.00;;;;;18.18;89.95;101597.47;6243514;22;46795;-84
2023/11/18 02:51:39;;;;;;;;;3.33;3.33;;;;;18.19;89.85;101593.84;6220533;22;45325;-83
2023/11/18 02:54:10;;;;;;;;;3.00;2.00;;;;;18.17;91.88;101581.31;6250138;22;45348;-83
2023/11/18 02:56:39;;;;;;;;;5.33;3.00;;;;;18.16;91.60;101588.50;6247240;22;45467;-84
2023/11/18 02:59:05;;;;;;;;;3.00;2.67;;;;;18.18;92.02;101581.31;6220096;22;47191;-84
2023/11/18 03:01:34;;;;;;;;;4.67;4.67;;;;;18.16;88.32;101566.97;6219955;22;45472;-84
2023/11/18 03:04:02;;;;;;;;;4.00;3.00;;;;;18.55;90.25;101578.44;6222244;22;45581;-84
2023/11/18 03:06:28;;;;;;;;;3.00;2.00;;;;;18.16;90.91;101566.06;6221912;22;45566;-83
2023/11/18 03:08:54;;;;;;;;;6.67;4.00;;;;;18.28;91.54;101551.63;6244527;22;48263;-84
2023/11/18 03:11:20;;;;;;;;;3.00;2.00;;;;;18.23;90.91;101542.72;6220550;22;45896;-83
2023/11/18 03:13:48;;;;;;;;;4.00;3.00;;;;;18.17;92.17;101541.81;6246369;22;45360;-82
2023/11/18 03:16:14;;;;;;;;;3.00;3.00;;;;;18.17;92.12;101539.13;6218941;22;45380;-83
2023/11/18 03:18:41;;;;;;;;;3.00;0.00;;;;;18.32;91.80;101535.47;6247081;22;45730;-84
2023/11/18 03:24:28;;;;;;;;;3.33;3.33;;;;;18.22;91.85;101517.59;6249737;22;45537;-83
2023/11/18 03:26:55;;;;;;;;;4.00;3.00;;;;;18.35;91.50;101504.94;6222804;22;45363;-84
2023/11/18 03:29:20;;;;;;;;;3.00;3.00;;;;;18.22;91.91;101498.75;6222429;22;47084;-84
2023/11/18 03:31:48;;;;;;;;;8.00;3.00;;;;;18.27;92.94;101482.56;6248947;22;45272;-84
2023/11/18 03:35:09;;;;;;;;;2.67;2.67;;;;;18.97;92.12;101475.78;6220566;22;45473;-83
2023/11/18 03:37:38;;;;;;;;;2.00;2.00;;;;;18.38;92.33;101460.03;6248696;22;45553;-83
2023/11/18 03:40:06;;;;;;;;;4.67;3.67;;;;;18.61;92.54;101456.28;6222559;22;46229;-83
2023/11/18 03:42:35;;;;;;;;;4.33;3.67;;;;;18.84;92.17;101466.00;6249970;22;45376;-83
2023/11/18 03:45:01;;;;;;;;;3.00;3.00;;;;;18.83;91.65;101467.81;6247970;22;45284;-83
2023/11/18 03:47:30;;;;;;;;;4.33;2.67;;;;;19.02;91.59;101455.06;6192404;22;45610;-84
2023/11/18 03:49:56;;;;;;;;;3.33;3.33;;;;;18.74;90.22;101462.44;6216835;22;45423;-84
2023/11/18 03:52:21;;;;;;;;;3.33;3.00;;;;;18.81;91.36;101469.63;6216845;22;45333;-84
2023/11/18 03:54:47;;;;;;;;;2.50;2.50;;;;;18.73;91.37;101468.75;6219434;22;45374;-83
2023/11/18 03:57:12;;;;;;;;;3.50;3.00;;;;;18.81;87.05;101466.94;6192004;22;45920;-84
2023/11/18 03:59:41;;;;;;;;;4.33;4.00;;;;;19.27;89.52;101463.81;6220522;22;45361;-84
2023/11/18 04:02:07;;;;;;;;;4.00;4.00;;;;;18.78;89.73;101458.81;6215473;22;45333;-83
2023/11/18 04:04:33;;;;;;;;;6.00;5.00;;;;;18.78;91.13;101461.53;6217599;22;45377;-83
2023/11/18 04:07:03;;;;;;;;;8.67;3.00;;;;;18.82;90.14;101455.22;6191624;22;45345;-84
2023/11/18 04:09:28;;;;;;;;;2.67;2.67;;;;;18.78;89.24;101458.81;6218261;22;45368;-83
2023/11/18 04:11:55;;;;;;;;;7.33;4.00;;;;;18.79;88.63;101453.47;6218018;22;45360;-83
2023/11/18 04:14:21;;;;;;;;;9.00;5.00;;;;;18.78;89.26;101450.75;6165919;22;45271;-84
2023/11/18 04:16:49;;;;;;;;;6.67;5.67;;;;;18.97;87.50;101449.72;6215389;22;45349;-83
2023/11/18 04:19:15;;;;;;;;;3.00;2.00;;;;;18.95;88.30;101445.25;6216082;22;47263;-83
2023/11/18 04:21:41;;;;;;;;;4.00;4.00;;;;;18.59;90.86;101441.94;6191176;22;45324;-84
2023/11/18 04:24:09;;;;;;;;;5.33;5.33;;;;;18.71;89.70;101440.94;6219380;22;45594;-84
2023/11/18 04:26:34;;;;;;;;;3.00;3.00;;;;;18.62;90.60;101441.00;6189813;22;45365;-84
2023/11/18 04:29:00;;;;;;;;;4.00;4.00;;;;;18.67;90.29;101447.25;6188918;22;47508;-84
2023/11/18 04:31:26;;;;;;;;;7.00;4.00;;;;;18.78;91.09;101443.56;6191044;22;45361;-84
2023/11/18 04:33:51;;;;;;;;;7.67;5.33;;;;;18.67;90.86;101450.84;6190763;22;45409;-84
2023/11/18 04:36:19;;;;;;;;;4.00;4.00;;;;;18.77;90.81;101447.16;6215940;22;45358;-85
2023/11/18 04:38:45;;;;;;;;;3.00;3.00;;;;;18.64;91.01;101447.28;6166167;22;46287;-84
2023/11/18 04:41:11;;;;;;;;;4.00;4.00;;;;;18.73;91.12;101455.28;6192045;22;45429;-84
2023/11/18 04:43:36;;;;;;;;;4.00;3.00;;;;;18.81;90.78;101453.47;6190993;22;45415;-83
2023/11/18 04:46:02;;;;;;;;;3.00;3.00;;;;;18.72;89.05;101443.63;6227762;22;45489;-82
2023/11/18 04:48:28;;;;;;;;;4.00;4.00;;;;;18.73;89.62;101441.81;6219467;22;48024;-84
2023/11/18 04:50:53;;;;;;;;;3.33;3.33;;;;;18.72;90.72;101448.09;6219668;22;45838;-84
2023/11/18 04:53:19;;;;;;;;;3.67;3.00;;;;;18.78;91.16;101446.28;6219886;22;45413;-85
2023/11/18 04:55:44;;;;;;;;;4.00;4.00;;;;;18.87;90.06;101445.31;6246549;22;45403;-84
2023/11/18 04:58:10;;;;;;;;;3.00;3.00;;;;;18.86;91.31;101439.94;6243844;22;47134;-83
2023/11/18 05:00:38;;;;;;;;;5.00;4.00;;;;;19.19;91.48;101441.44;6243563;22;45358;-83
2023/11/18 05:03:04;;;;;;;;;7.00;3.67;;;;;18.82;88.66;101425.59;6244849;22;45420;-83
2023/11/18 05:05:29;;;;;;;;;6.33;6.33;;;;;18.75;87.71;101432.81;6221370;22;45325;-84
2023/11/18 05:07:55;;;;;;;;;4.00;4.00;;;;;18.83;89.98;101446.25;6222631;22;47297;-83
2023/11/18 05:10:20;;;;;;;;;5.00;4.00;;;;;18.77;88.17;101435.50;6250943;22;48433;-84
2023/11/18 05:12:55;;;;;;;;;7.00;4.67;;;;;18.91;89.72;101428.22;6248929;22;45894;-84
2023/11/18 05:15:24;;;;;;;;;7.33;5.33;;;;;18.56;88.34;101426.69;6250092;22;45348;-84
2023/11/18 05:17:50;;;;;;;;;5.33;5.33;;;;;18.44;86.78;101416.03;6222227;22;48024;-83
2023/11/18 05:20:16;;;;;;;;;4.00;4.00;;;;;18.35;87.92;101405.31;6246591;22;45333;-83
2023/11/18 05:22:41;;;;;;;;;5.00;4.33;;;;;18.35;89.80;101405.31;6249513;22;45305;-83
2023/11/18 05:25:10;;;;;;;;;6.67;4.00;;;;;18.30;85.88;101408.03;6249069;22;45269;-83
2023/11/18 05:27:35;;;;;;;;;3.00;2.00;;;;;18.14;89.19;101390.19;6217694;22;48070;-83
2023/11/18 05:30:01;;;;;;;;;4.67;3.67;;;;;18.19;89.26;101397.31;6217374;22;45317;-83
2023/11/18 05:32:27;;;;;;;;;3.00;3.00;;;;;18.26;88.05;101402.66;6217748;22;45440;-84
2023/11/18 05:34:54;;;;;;;;;0.00;0.00;;;;;18.09;87.35;101395.59;6220403;22;45587;-84
2023/11/18 05:37:23;;;;;;;;;3.00;3.00;;;;;18.19;84.09;101397.31;6219584;22;47813;-84
2023/11/18 05:39:53;;;;;;;;;3.00;3.00;;;;;18.00;86.68;101392.97;6242894;22;46321;-84
2023/11/18 05:42:19;;;;;;;;;3.67;3.00;;;;;17.96;86.55;101389.41;6244739;22;45359;-84
2023/11/18 05:44:46;;;;;;;;;3.00;3.00;;;;;17.99;84.50;101375.91;6218679;22;45502;-84
2023/11/18 05:47:12;;;;;;;;;3.00;3.00;;;;;17.87;89.16;101376.00;6243028;22;47161;-83
2023/11/18 05:49:38;;;;;;;;;4.00;4.00;;;;;17.94;87.39;101376.88;6251267;22;45349;-81
2023/11/18 05:52:04;;;;;;;;;5.00;5.00;;;;;18.01;87.84;101369.66;6254093;22;44823;-82
2023/11/18 05:54:30;;;;;;;;;5.33;5.33;;;;;17.92;84.75;101352.66;6253905;22;45029;-81
2023/11/18 05:56:56;;;;;;;;;3.33;3.33;;;;;18.04;86.62;101361.53;6228290;22;47365;-81
2023/11/18 05:59:23;;;;;;;;;3.00;3.00;;;;;17.86;81.10;101358.06;6228977;22;44804;-82
2023/11/18 06:01:49;;;;;;;;;6.00;3.33;;;;;17.83;85.96;101346.41;6254473;22;45023;-80
2023/11/18 06:04:15;;;;;;;;;5.33;3.67;;;;;17.83;87.70;101344.63;6254603;22;44864;-81
2023/11/18 06:06:41;;;;;;;;;6.00;2.67;;;;;17.82;84.93;101347.31;6203872;22;47415;-80
2023/11/18 06:09:09;;;;;;;;;3.33;2.00;;;;;17.79;81.08;101349.13;6257923;22;44749;-81
2023/11/18 06:11:35;;;;;;;;;2.33;2.33;;;;;17.90;84.47;101342.81;6230556;22;45061;-80
2023/11/18 06:14:01;;;;;;;;;3.00;3.00;;;;;17.82;88.30;101345.50;6255655;22;44788;-80
2023/11/18 06:16:27;;;;;;;;;5.33;5.33;;;;;17.84;88.25;101348.25;6254977;22;44948;-80
2023/11/18 06:18:57;;;;;;;;;5.00;2.67;;;;;18.28;87.31;101333.53;6228519;22;45017;-81
2023/11/18 06:21:28;;;;;;;;;4.67;4.00;;;;;18.11;89.71;101339.06;6256458;22;44840;-81
2023/11/18 06:23:54;;;;;;;;;6.00;5.33;;;;;17.84;85.58;101321.31;6229789;22;44871;-81
2023/11/18 06:26:21;;;;;;;;;2.67;2.67;;;;;17.80;79.93;101325.78;6229646;22;47348;-81
2023/11/18 06:28:51;;;;;;;;;6.67;3.67;;;;;18.14;85.91;101318.41;6229128;22;45336;-81
2023/11/18 06:31:17;;;;;;;;;7.00;4.00;;;;;17.83;84.33;101320.41;6205071;22;45389;-82
2023/11/18 06:33:47;;;;;;;;;4.00;4.00;;;;;18.00;86.33;101312.25;6229919;22;44916;-81
2023/11/18 06:36:21;;;;;;;;;4.00;4.00;;;;;18.40;87.27;101303.84;6226712;22;46800;-81
2023/11/18 06:38:51;;;;;;;;;6.00;4.33;;;;;18.00;87.70;101312.25;6253254;22;45353;-81
2023/11/18 06:41:19;;;;;;;;;5.67;4.67;;;;;17.96;86.81;101305.09;6253312;22;44712;-81
2023/11/18 06:43:56;;;;;;;;;5.67;5.67;;;;;17.99;86.18;101310.44;6255854;22;44862;-81
2023/11/18 06:46:33;;;;;;;;;3.67;3.67;;;;;18.44;88.10;101294.81;6227625;22;47214;-81
2023/11/18 06:49:03;;;;;;;;;7.00;7.00;;;;;17.98;87.82;101300.59;6255844;22;44706;-80
2023/11/18 06:51:29;;;;;;;;;4.00;4.00;;;;;17.97;85.68;101296.09;6228540;22;44817;-81
2023/11/18 06:53:56;;;;;;;;;4.67;4.67;;;;;18.32;87.53;101281.44;6255318;22;45351;-81
2023/11/18 06:56:27;;;;;;;;;6.00;6.00;;;;;18.37;84.23;101279.63;6256621;22;45153;-81
2023/11/18 06:58:53;;;;;;;;;4.33;3.67;;;;;17.91;90.99;101280.00;6229135;22;45480;-80
2023/11/18 07:01:19;;;;;;;;;3.33;3.33;;;;;17.99;90.08;101278.13;6228045;22;44923;-81
2023/11/18 07:03:48;;;;;;;;;4.00;4.00;;;;;18.06;84.38;101281.69;6253631;22;44924;-80
2023/11/18 07:06:21;;;;;;;;;6.00;6.00;;;;;18.28;86.32;101274.28;6226887;22;47225;-80
2023/11/18 07:08:50;;;;;;;;;3.67;2.00;;;;;17.84;86.76;101289.03;6254068;22;44721;-81
2023/11/18 07:11:17;;;;;;;;;8.00;8.00;;;;;17.83;87.40;101295.28;6254638;22;44815;-81
2023/11/18 07:13:43;;;;;;;;;6.33;6.33;;;;;17.82;86.94;101288.13;6228751;22;44875;-80
2023/11/18 07:16:09;;;;;;;;;8.33;4.00;;;;;17.72;88.41;101290.88;6255410;22;45282;-80
2023/11/18 07:18:35;;;;;;;;;3.33;3.33;;;;;17.73;87.13;101287.28;6228470;22;44843;-80
2023/11/18 07:21:03;;;;;;;;;4.00;3.33;;;;;17.71;90.55;101288.19;6257510;22;45200;-81
2023/11/18 07:23:29;;;;;;;;;4.00;3.00;;;;;17.62;86.48;101283.75;6229282;22;44907;-81
2023/11/18 07:25:54;;;;;;;;;4.00;4.00;;;;;17.61;87.82;101290.03;6254469;22;45301;-81
2023/11/18 07:28:26;;;;;;;;;3.67;3.67;;;;;18.11;86.77;101288.81;6257135;22;45227;-81
2023/11/18 07:31:04;;;;;;;;;3.25;3.25;;;;;17.63;86.80;101285.53;6255261;22;44697;-81
2023/11/18 07:33:33;;;;;;;;;2.67;2.67;;;;;17.46;88.03;101282.06;6258264;22;45187;-81
2023/11/18 07:36:17;;;;;;;;;4.00;4.00;;;;;17.51;88.89;101296.38;6253216;22;46149;-81
2023/11/18 07:38:42;;;;;;;;;2.67;2.67;;;;;17.43;88.98;101290.13;6257821;22;44758;-81
2023/11/18 07:41:08;;;;;;;;;4.67;4.67;;;;;17.51;87.71;101288.28;6256834;22;45864;-81
2023/11/18 07:43:37;;;;;;;;;7.33;5.33;;;;;17.59;91.57;101287.38;6229346;22;44803;-82
2023/11/18 07:46:03;;;;;;;;;3.33;3.33;;;;;17.58;90.94;101282.88;6224176;22;47339;-81
2023/11/18 07:48:31;;;;;;;;;3.33;3.33;;;;;17.48;90.77;101285.66;6226077;22;44752;-81
2023/11/18 07:51:04;;;;;;;;;3.00;3.00;;;;;18.14;91.96;101295.97;6226435;22;44799;-81
2023/11/18 07:53:29;;;;;;;;;4.67;4.67;;;;;17.54;91.55;101291.88;6223959;22;44844;-81
2023/11/18 07:55:55;;;;;;;;;3.67;3.67;;;;;17.58;88.89;101298.13;6223538;22;46787;-81
2023/11/18 07:58:23;;;;;;;;;3.33;3.33;;;;;17.50;86.63;101292.78;6173648;22;44823;-81
2023/11/18 08:00:49;;;;;;;;;2.67;2.67;;;;;17.42;88.82;101291.06;6227578;22;45491;-81
2023/11/18 08:03:14;;;;;;;;;3.00;3.00;;;;;17.42;88.23;101289.25;6225637;22;44832;-82
2023/11/18 08:05:43;;;;;;;;;3.33;2.00;;;;;17.66;91.04;101288.22;6224705;22;46850;-81
2023/11/18 08:08:12;;;;;;;;;3.00;3.00;;;;;17.46;88.50;101276.69;6225446;22;44762;-82
2023/11/18 08:10:39;;;;;;;;;3.00;3.00;;;;;17.64;91.88;101298.09;6198903;22;44945;-81
2023/11/18 08:13:08;;;;;;;;;2.00;2.00;;;;;17.52;88.08;101282.03;6226662;22;44904;-81
2023/11/18 08:15:35;;;;;;;;;1.50;1.50;;;;;17.63;91.76;101293.59;6226587;22;45337;-81
2023/11/18 08:18:01;;;;;;;;;3.67;2.67;;;;;17.65;87.85;101299.88;6222668;22;44770;-81
2023/11/18 08:20:26;;;;;;;;;2.67;2.00;;;;;17.67;87.25;101283.72;6198101;22;44970;-81
2023/11/18 08:22:53;;;;;;;;;2.33;2.33;;;;;17.82;91.71;101291.69;6198089;22;44788;-82
2023/11/18 08:25:18;;;;;;;;;1.00;1.00;;;;;17.78;91.68;101290.81;6223139;22;47532;-81
2023/11/18 08:27:47;;;;;;;;;2.00;2.00;;;;;17.82;89.32;101285.44;6224864;22;44796;-81
2023/11/18 08:30:13;;;;;;;;;2.00;1.00;;;;;17.93;92.71;101276.38;6223225;22;44812;-82
2023/11/18 08:32:39;;;;;;;;;2.00;2.00;;;;;17.95;87.95;101271.00;6222534;22;44844;-82
2023/11/18 08:35:09;;;;;;;;;2.33;2.33;;;;;18.40;91.37;101271.53;6196625;22;47129;-81
2023/11/18 08:37:35;;;;;;;;;2.00;2.00;;;;;17.96;84.62;101270.09;6196312;22;45101;-81
2023/11/18 08:40:06;;;;;;;;;3.00;3.00;;;;;18.17;88.82;101260.94;6225147;22;44768;-81
2023/11/18 08:42:34;;;;;;;;;2.00;2.00;;;;;18.33;88.80;101276.03;6197945;22;44922;-81
2023/11/18 08:45:00;;;;;;;;;2.67;2.67;;;;;17.98;86.94;101249.47;6197955;22;47249;-80
2023/11/18 08:47:27;;;;;;;;;1.00;1.00;;;;;18.08;87.13;101256.53;6219644;22;44885;-81
2023/11/18 08:49:52;;;;;;;;;2.00;2.00;;;;;18.04;90.50;101264.63;6253229;22;44855;-81
2023/11/18 08:52:17;;;;;;;;;1.00;1.00;;;;;18.12;83.58;101252.91;6255175;22;44732;-82
2023/11/18 08:57:38;;;;;;;;;1.25;1.00;;;;;18.19;89.57;101268.09;6231582;22;44848;-81
2023/11/18 09:00:18;;;;;;;;;1.75;1.75;;;;;18.52;82.96;101240.84;6228967;22;44843;-81
2023/11/18 09:02:43;;;;;;;;;2.00;2.00;;;;;18.25;84.95;101244.72;6226335;22;44792;-81
2023/11/18 09:05:12;;;;;;;;;4.33;2.00;;;;;18.28;88.29;101242.91;6225608;22;47342;-81
2023/11/18 09:07:38;;;;;;;;;5.33;3.33;;;;;18.32;88.48;101232.97;6227394;22;44725;-81
2023/11/18 09:10:12;;;;;;;;;3.00;3.00;;;;;18.30;86.65;101240.16;6254660;22;44818;-82
2023/11/18 09:12:37;;;;;;;;;2.00;2.00;;;;;18.23;87.18;101243.84;6256575;22;44737;-81
2023/11/18 09:15:04;;;;;;;;;4.00;4.00;;;;;18.67;88.85;101251.47;6255040;22;53573;-81
2023/11/18 09:17:31;;;;;;;;;2.25;2.25;;;;;18.59;89.20;101247.97;6228047;22;45530;-82
2023/11/18 09:19:56;;;;;;;;;1.00;1.00;;;;;18.21;87.22;101254.63;6252247;22;44839;-81
2023/11/18 09:22:23;;;;;;;;;1.50;1.50;;;;;18.32;91.31;101243.75;6228427;22;45304;-82
2023/11/18 09:24:49;;;;;;;;;2.25;2.25;;;;;18.51;89.97;101245.34;6253999;22;45535;-81
2023/11/18 09:27:15;;;;;;;;;2.33;2.33;;;;;18.50;90.15;101231.88;6228100;22;45124;-81
2023/11/18 09:29:41;;;;;;;;;4.33;4.00;;;;;18.61;91.61;101235.38;6229869;22;44748;-81
2023/11/18 09:32:06;;;;;;;;;2.00;2.00;;;;;18.69;90.32;101220.00;6255926;22;45329;-83
2023/11/18 09:34:33;;;;;;;;;3.00;3.00;;;;;18.80;89.98;101211.81;6257532;22;44857;-82
2023/11/18 09:36:58;;;;;;;;;3.00;3.00;;;;;18.88;89.58;101218.00;6255598;22;44779;-83
2023/11/18 09:39:37;;;;;;;;;7.00;5.67;;;;;19.06;90.55;101210.59;6256589;22;45280;-82
2023/11/18 09:42:08;;;;;;;;;4.00;3.00;;;;;19.19;89.15;101201.44;6253656;22;44920;-82
2023/11/18 09:44:37;;;;;;;;;7.67;4.00;;;;;19.20;90.34;101203.22;6256488;22;45049;-82
2023/11/18 09:47:24;;;;;;;;;4.33;3.00;;;;;19.78;89.67;101198.75;6229006;22;44934;-81
2023/11/18 09:49:55;;;;;;;;;2.00;2.00;;;;;19.59;88.70;101179.22;6255025;22;45277;-81
2023/11/18 09:52:24;;;;;;;;;1.67;1.67;;;;;19.44;89.82;101183.06;6257676;22;45024;-81
2023/11/18 09:55:14;;;;;;;;;3.00;3.00;;;;;19.77;88.18;101187.09;6256872;22;45203;-81
2023/11/18 09:57:57;;;;;;;;;3.00;2.67;;;;;19.75;90.88;101182.59;6256862;22;45222;-81
2023/11/18 10:00:26;;;;;;;;;2.67;2.33;;;;;19.55;90.70;101172.09;6228698;22;45350;-81
2023/11/18 10:02:53;;;;;;;;;3.00;2.00;;;;;19.60;89.97;101164.84;6255493;22;44882;-81
2023/11/18 10:05:26;;;;;;;;;3.00;2.00;;;;;20.13;88.07;101160.31;6256210;22;45109;-81
2023/11/18 10:07:53;;;;;;;;;2.00;2.00;;;;;19.33;90.02;101156.28;6253893;22;45395;-81
2023/11/18 10:10:20;;;;;;;;;2.67;2.67;;;;;19.46;88.47;101164.19;6256287;22;44847;-81
2023/11/18 10:13:21;;;;;;;;;2.00;2.00;;;;;19.88;88.98;101134.72;6255231;22;44693;-81
2023/11/18 10:15:39;;;;;;;;;2.00;2.00;;;;;19.49;87.76;101142.53;6254361;22;45009;-81
2023/11/18 10:18:15;;;;;;;;;2.00;2.00;;;;;19.47;86.43;101137.19;6255872;22;44804;-80
2023/11/18 10:20:45;;;;;;;;;1.00;1.00;;;;;19.86;89.88;101140.13;6255508;22;45455;-81
2023/11/18 10:23:12;;;;;;;;;1.00;1.00;;;;;19.59;89.89;101119.88;6254077;22;44805;-81
2023/11/18 10:25:46;;;;;;;;;1.00;1.00;;;;;19.86;87.25;101101.47;6227673;22;47136;-80
2023/11/18 10:28:32;;;;;;;;;1.00;1.00;;;;;19.99;86.67;101094.91;6256100;22;44811;-81
2023/11/18 10:31:09;;;;;;;;;1.00;1.00;;;;;19.92;90.36;101102.22;6257460;22;44864;-81
2023/11/18 10:33:42;;;;;;;;;2.33;2.33;;;;;19.99;90.87;101078.69;6229678;22;44964;-80
2023/11/18 10:36:22;;;;;;;;;2.00;2.00;;;;;20.02;85.43;101091.25;6256644;22;45287;-81
2023/11/18 10:38:49;;;;;;;;;9.00;9.00;;;;;19.53;90.98;101106.50;6229334;22;44839;-81
2023/11/18 10:41:16;;;;;;;;;3.50;3.50;;;;;19.61;86.09;101103.66;6227803;22;45254;-83
2023/11/18 10:43:44;;;;;;;;;2.25;2.25;;;;;19.55;89.37;101081.28;6255821;22;44868;-81
2023/11/18 10:46:13;;;;;;;;;2.00;2.00;;;;;19.59;84.64;101071.31;6254982;22;47177;-80
2023/11/18 10:48:46;;;;;;;;;3.25;3.25;;;;;19.80;90.72;101090.78;6254828;22;44823;-83
2023/11/18 10:51:15;;;;;;;;;3.75;3.75;;;;;19.73;86.55;101087.28;6255727;22;45236;-81
2023/11/18 10:53:58;;;;;;;;;0.00;0.00;;;;;19.81;87.59;101084.44;6253540;22;44850;-81
2023/11/18 10:56:28;;;;;;;;;3.50;3.50;;;;;20.15;88.03;101087.38;6254658;22;45007;-81
2023/11/18 10:58:59;;;;;;;;;2.00;2.00;;;;;20.22;87.79;101090.84;6256149;22;44822;-81
2023/11/18 11:01:31;;;;;;;;;3.00;3.00;;;;;20.27;88.25;101105.16;6227571;22;44717;-81
2023/11/18 11:03:58;;;;;;;;;4.00;3.00;;;;;19.89;88.38;101113.06;6255627;22;44871;-82
2023/11/18 11:06:24;;;;;;;;;2.00;2.00;;;;;20.04;91.24;101116.44;6228970;22;47103;-82
2023/11/18 11:09:01;;;;;;;;;3.00;3.00;;;;;20.21;88.10;101116.09;6228338;22;45896;-82
2023/11/18 11:11:39;;;;;;;;;2.00;2.00;;;;;20.54;86.38;101106.38;6227853;22;45062;-81
2023/11/18 11:14:06;;;;;;;;;3.00;3.00;;;;;20.04;89.79;101101.13;6228620;22;44932;-80
2023/11/18 11:16:44;;;;;;;;;4.00;4.00;;;;;20.55;88.06;101082.03;6226113;22;48330;-81
2023/11/18 11:19:25;;;;;;;;;6.50;4.00;;;;;20.64;87.92;101096.31;6255287;22;44788;-82
2023/11/18 11:22:02;;;;;;;;;3.00;3.00;;;;;20.61;90.11;101118.00;6253516;22;45242;-82
2023/11/18 11:25:09;;;;;;;;;5.00;3.67;;;;;20.86;85.61;101119.22;6228911;22;44843;-80
2023/11/18 11:27:51;;;;;;;;;4.00;4.00;;;;;20.58;87.68;101103.63;6254661;22;45565;-80
2023/11/18 11:31:10;;;;;;;;;3.00;3.00;;;;;20.83;87.31;101113.91;6225806;22;44692;-80
2023/11/18 11:33:43;;;;;;;;;3.00;3.00;;;;;20.60;87.65;101106.28;6226919;22;45407;-81
2023/11/18 11:36:22;;;;;;;;;3.75;3.75;;;;;20.60;87.04;101100.00;6227604;22;44849;-81
2023/11/18 11:38:52;;;;;;;;;4.33;4.33;;;;;20.15;87.05;101101.78;6253960;22;45159;-81
2023/11/18 11:41:26;;;;;;;;;8.33;6.33;;;;;20.08;89.52;101097.44;6255344;22;44886;-82